Search METAR Data

METAR Data for ENBR:

ENBR 241450Z 32015KT 290V360 9999 FEW030 SCT050TCU 06/M03 Q1007 NOSIG RMK WIND 1200FT 33019KT